createdAt,value
2022-08-29T00:02:13.161Z,5.60
2022-08-29T00:04:40.880Z,5.13
2022-08-29T00:07:10.339Z,5.55
2022-08-29T00:09:37.951Z,5.50
2022-08-29T00:12:06.494Z,5.43
2022-08-29T00:14:34.438Z,5.40
2022-08-29T00:17:02.176Z,5.35
2022-08-29T00:19:30.024Z,5.22
2022-08-29T00:21:57.675Z,4.82
2022-08-29T00:24:27.341Z,5.35
2022-08-29T00:26:54.969Z,5.28
2022-08-29T00:29:22.589Z,5.65
2022-08-29T00:31:50.332Z,5.38
2022-08-29T00:34:17.963Z,5.38
2022-08-29T00:36:48.951Z,5.45
2022-08-29T00:39:17.000Z,4.95
2022-08-29T00:41:47.935Z,5.00
2022-08-29T00:44:16.719Z,5.32
2022-08-29T00:46:48.556Z,5.20
2022-08-29T00:49:30.940Z,5.32
2022-08-29T00:52:01.177Z,5.22
2022-08-29T00:54:29.025Z,5.05
2022-08-29T00:56:58.958Z,5.47
2022-08-29T00:59:31.554Z,5.30
2022-08-29T01:01:59.851Z,4.90
2022-08-29T01:04:27.693Z,4.85
2022-08-29T01:06:55.653Z,5.18
2022-08-29T01:09:24.237Z,5.20
2022-08-29T01:12:15.416Z,4.72
2022-08-29T01:14:47.848Z,4.28
2022-08-29T01:17:19.417Z,4.63
2022-08-29T01:19:53.931Z,4.53
2022-08-29T01:22:34.834Z,4.55
2022-08-29T01:25:07.580Z,4.65
2022-08-29T01:27:39.553Z,4.63
2022-08-29T01:30:09.027Z,4.90
2022-08-29T01:32:36.676Z,4.35
2022-08-29T01:35:05.515Z,4.70
2022-08-29T01:37:35.282Z,4.78
2022-08-29T01:40:05.367Z,4.85
2022-08-29T01:42:36.611Z,5.28
2022-08-29T01:45:09.963Z,4.60
2022-08-29T01:47:39.138Z,4.55
2022-08-29T01:50:10.095Z,5.47
2022-08-29T01:52:37.781Z,4.28
2022-08-29T01:55:07.598Z,4.93
2022-08-29T01:57:37.316Z,4.70
2022-08-29T02:00:07.723Z,4.40
2022-08-29T02:02:35.511Z,4.78
2022-08-29T02:05:04.942Z,4.47
2022-08-29T02:07:32.567Z,4.50
2022-08-29T02:10:00.268Z,4.82
2022-08-29T02:12:31.587Z,4.45
2022-08-29T02:15:02.006Z,4.70
2022-08-29T02:17:29.923Z,4.50
2022-08-29T02:19:58.049Z,4.03
2022-08-29T02:22:25.990Z,4.18
2022-08-29T02:24:53.557Z,4.45
2022-08-29T02:27:21.175Z,4.50
2022-08-29T02:29:50.593Z,4.35
2022-08-29T02:32:18.240Z,4.05
2022-08-29T02:34:47.831Z,3.75
2022-08-29T02:37:16.310Z,4.18
2022-08-29T02:39:43.950Z,4.15
2022-08-29T02:42:11.619Z,4.55
2022-08-29T02:44:39.267Z,4.05
2022-08-29T02:47:09.260Z,3.97
2022-08-29T02:49:37.029Z,3.85
2022-08-29T02:52:06.515Z,4.05
2022-08-29T02:54:34.731Z,3.80
2022-08-29T02:57:02.322Z,3.60
2022-08-29T02:59:29.972Z,3.45
2022-08-29T03:01:57.745Z,4.03
2022-08-29T03:04:26.744Z,3.72
2022-08-29T03:06:54.525Z,3.83
2022-08-29T03:09:22.121Z,3.22
2022-08-29T03:11:52.496Z,3.50
2022-08-29T03:14:20.097Z,4.20
2022-08-29T03:16:47.819Z,3.58
2022-08-29T03:19:15.422Z,3.47
2022-08-29T03:21:45.402Z,3.95
2022-08-29T03:24:13.157Z,3.70
2022-08-29T03:26:40.766Z,3.35
2022-08-29T03:29:08.357Z,2.90
2022-08-29T03:31:36.472Z,3.45
2022-08-29T03:34:04.450Z,3.47
2022-08-29T03:36:32.340Z,3.78
2022-08-29T03:39:01.466Z,3.35
2022-08-29T03:41:30.394Z,3.30
2022-08-29T03:43:58.872Z,3.22
2022-08-29T03:46:29.231Z,3.55
2022-08-29T03:48:59.123Z,3.40
2022-08-29T03:51:29.389Z,3.55
2022-08-29T03:53:57.285Z,2.83
2022-08-29T03:56:26.956Z,3.50
2022-08-29T03:58:55.110Z,3.83
2022-08-29T04:01:24.761Z,3.47
2022-08-29T04:03:52.668Z,4.68
2022-08-29T04:06:20.856Z,5.15
2022-08-29T04:08:48.815Z,4.28
2022-08-29T04:11:18.468Z,4.72
2022-08-29T04:13:48.801Z,3.72
2022-08-29T04:16:19.656Z,3.22
2022-08-29T04:18:47.431Z,3.80
2022-08-29T04:21:15.552Z,3.58
2022-08-29T04:23:43.643Z,3.30
2022-08-29T04:26:35.281Z,3.50
2022-08-29T04:29:03.691Z,3.70
2022-08-29T04:31:31.484Z,3.53
2022-08-29T04:33:59.199Z,3.30
2022-08-29T04:36:28.039Z,3.15
2022-08-29T04:38:56.008Z,3.53
2022-08-29T04:41:23.596Z,3.33
2022-08-29T04:43:51.224Z,3.38
2022-08-29T04:46:24.011Z,3.28
2022-08-29T04:51:19.936Z,3.63
2022-08-29T04:53:48.104Z,3.05
2022-08-29T04:56:16.368Z,3.22
2022-08-29T04:58:45.280Z,3.42
2022-08-29T05:01:14.928Z,3.20
2022-08-29T05:03:45.324Z,3.53
2022-08-29T05:06:15.518Z,3.72
2022-08-29T05:08:45.795Z,3.13
2022-08-29T05:11:15.658Z,3.10
2022-08-29T05:13:52.029Z,2.97
2022-08-29T05:16:19.818Z,3.30
2022-08-29T05:18:48.910Z,2.90
2022-08-29T05:21:25.927Z,2.67
2022-08-29T05:23:54.218Z,3.22
2022-08-29T05:26:22.065Z,2.60
2022-08-29T05:28:49.714Z,2.70
2022-08-29T05:31:17.421Z,2.78
2022-08-29T05:33:45.180Z,2.58
2022-08-29T05:36:14.189Z,3.20
2022-08-29T05:38:42.135Z,2.50
2022-08-29T05:41:09.724Z,3.00
2022-08-29T05:43:37.374Z,2.95
2022-08-29T05:46:07.045Z,2.72
2022-08-29T05:48:35.905Z,3.00
2022-08-29T05:51:04.132Z,3.70
2022-08-29T05:53:34.575Z,3.13
2022-08-29T05:56:02.281Z,3.63
2022-08-29T05:58:29.917Z,3.53
2022-08-29T06:00:57.606Z,3.90
2022-08-29T06:03:25.592Z,4.28
2022-08-29T06:05:53.957Z,5.63
2022-08-29T06:08:22.052Z,5.72
2022-08-29T06:10:51.020Z,4.68
2022-08-29T06:13:19.444Z,4.85
2022-08-29T06:15:47.062Z,4.75
2022-08-29T06:18:14.826Z,4.22
2022-08-29T06:20:42.519Z,4.40
2022-08-29T06:23:10.191Z,4.18
2022-08-29T06:25:40.109Z,4.40
2022-08-29T06:28:09.481Z,4.82
2022-08-29T06:30:37.171Z,4.25
2022-08-29T06:33:04.980Z,4.22
2022-08-29T06:35:32.583Z,3.70
2022-08-29T06:38:00.299Z,4.03
2022-08-29T06:40:28.019Z,4.55
2022-08-29T06:42:55.693Z,4.07
2022-08-29T06:45:24.752Z,4.47
2022-08-29T06:47:52.407Z,3.88
2022-08-29T06:50:20.169Z,4.32
2022-08-29T06:52:49.272Z,4.28
2022-08-29T06:55:17.048Z,3.70
2022-08-29T06:57:51.575Z,3.60
2022-08-29T07:00:22.086Z,3.97
2022-08-29T07:02:53.080Z,3.78
2022-08-29T07:05:21.627Z,4.68
2022-08-29T07:07:49.665Z,2.60
2022-08-29T07:10:22.246Z,2.53
2022-08-29T07:12:51.028Z,2.58
2022-08-29T07:15:19.866Z,24.15
2022-08-29T07:17:47.515Z,26.05
2022-08-29T07:20:17.808Z,25.58
2022-08-29T07:22:51.003Z,20.08
2022-08-29T07:25:20.072Z,20.70
2022-08-29T07:27:48.329Z,7.13
2022-08-29T07:30:21.121Z,4.40
2022-08-29T07:32:48.729Z,9.82
2022-08-29T07:35:29.598Z,5.85
2022-08-29T07:37:59.378Z,3.15
2022-08-29T07:40:27.072Z,2.80
2022-08-29T07:42:54.751Z,6.18
2022-08-29T07:45:22.681Z,3.60
2022-08-29T07:47:50.252Z,3.83
2022-08-29T07:50:19.226Z,2.50
2022-08-29T07:52:47.684Z,2.85
2022-08-29T07:55:15.428Z,2.25
2022-08-29T07:57:43.076Z,2.08
2022-08-29T08:00:12.037Z,2.10
2022-08-29T08:02:42.520Z,2.22
2022-08-29T08:05:10.484Z,2.08
2022-08-29T08:07:40.178Z,1.90
2022-08-29T08:10:09.532Z,2.30
2022-08-29T08:12:37.178Z,1.75
2022-08-29T08:15:05.481Z,1.92
2022-08-29T08:17:33.180Z,2.10
2022-08-29T08:20:00.796Z,2.20
2022-08-29T08:22:28.385Z,1.98
2022-08-29T08:24:57.310Z,1.83
2022-08-29T08:27:24.954Z,1.85
2022-08-29T08:29:52.559Z,1.90
2022-08-29T08:32:23.152Z,1.75
2022-08-29T08:34:59.964Z,1.90
2022-08-29T08:37:27.578Z,2.05
2022-08-29T08:39:58.290Z,1.58
2022-08-29T08:42:33.648Z,3.42
2022-08-29T08:45:08.626Z,2.75
2022-08-29T08:47:40.236Z,3.55
2022-08-29T08:50:16.066Z,2.60
2022-08-29T08:52:47.875Z,2.28
2022-08-29T08:55:24.917Z,2.88
2022-08-29T08:58:00.665Z,3.03
2022-08-29T09:00:36.142Z,3.00
2022-08-29T09:03:13.981Z,2.60
2022-08-29T09:06:00.808Z,3.45
2022-08-29T09:08:42.759Z,2.95
2022-08-29T09:11:19.746Z,2.10
2022-08-29T09:13:56.899Z,2.40
2022-08-29T09:16:27.958Z,2.53
2022-08-29T09:18:59.594Z,2.88
2022-08-29T09:21:43.893Z,2.45
2022-08-29T09:24:18.301Z,2.25
2022-08-29T09:26:47.337Z,2.55
2022-08-29T09:29:20.807Z,3.42
2022-08-29T09:32:07.212Z,2.97
2022-08-29T09:37:29.920Z,2.60
2022-08-29T09:40:01.366Z,2.65
2022-08-29T09:42:36.334Z,2.72
2022-08-29T09:45:16.169Z,3.08
2022-08-29T09:47:44.145Z,2.60
2022-08-29T09:50:21.489Z,2.78
2022-08-29T09:52:53.601Z,2.47
2022-08-29T09:55:25.475Z,2.28
2022-08-29T09:57:57.956Z,2.20
2022-08-29T10:00:29.713Z,2.50
2022-08-29T10:03:00.103Z,3.67
2022-08-29T10:05:35.067Z,2.55
2022-08-29T10:08:04.464Z,2.78
2022-08-29T10:10:36.000Z,2.30
2022-08-29T10:13:11.666Z,1.90
2022-08-29T10:15:51.614Z,2.30
2022-08-29T10:18:29.122Z,2.53
2022-08-29T10:21:07.900Z,2.78
2022-08-29T10:23:47.565Z,2.90
2022-08-29T10:26:28.599Z,2.13
2022-08-29T10:29:09.212Z,2.20
2022-08-29T10:31:41.392Z,5.78
2022-08-29T10:34:22.258Z,3.35
2022-08-29T10:36:56.230Z,2.83
2022-08-29T10:39:34.613Z,2.33
2022-08-29T10:42:09.618Z,2.47
2022-08-29T10:44:51.122Z,3.20
2022-08-29T10:47:32.119Z,2.78
2022-08-29T10:50:21.834Z,3.13
2022-08-29T10:53:03.259Z,4.03
2022-08-29T10:55:42.168Z,2.58
2022-08-29T10:58:18.149Z,2.78
2022-08-29T11:00:52.559Z,2.88
2022-08-29T11:03:29.954Z,2.60
2022-08-29T11:06:02.297Z,3.33
2022-08-29T11:08:34.677Z,3.20
2022-08-29T11:11:02.305Z,3.43
2022-08-29T11:13:36.084Z,2.70
2022-08-29T11:16:13.924Z,3.80
2022-08-29T11:18:46.309Z,3.40
2022-08-29T11:21:25.195Z,3.40
2022-08-29T11:23:55.454Z,3.25
2022-08-29T11:26:39.971Z,2.90
2022-08-29T11:29:18.065Z,3.40
2022-08-29T11:31:54.475Z,2.72
2022-08-29T11:34:32.485Z,2.67
2022-08-29T11:37:28.869Z,3.35
2022-08-29T11:40:08.345Z,3.40
2022-08-29T11:42:55.197Z,3.75
2022-08-29T11:45:35.592Z,3.05
2022-08-29T11:48:21.256Z,2.67
2022-08-29T11:50:50.101Z,3.00
2022-08-29T11:53:33.670Z,2.42
2022-08-29T11:56:27.966Z,2.35
2022-08-29T11:58:57.087Z,2.60
2022-08-29T12:01:56.205Z,2.40
2022-08-29T12:04:53.747Z,2.65
2022-08-29T12:07:24.246Z,2.47
2022-08-29T12:09:58.812Z,2.40
2022-08-29T12:12:45.191Z,2.20
2022-08-29T12:15:54.596Z,2.53
2022-08-29T12:18:36.605Z,2.53
2022-08-29T12:21:34.117Z,2.53
2022-08-29T12:24:02.217Z,2.30
2022-08-29T12:26:43.087Z,2.40
2022-08-29T12:29:19.492Z,2.63
2022-08-29T12:32:28.530Z,2.47
2022-08-29T12:35:22.211Z,2.35
2022-08-29T12:38:03.297Z,2.05
2022-08-29T12:40:46.768Z,2.60
2022-08-29T12:43:26.905Z,2.42
2022-08-29T12:45:56.241Z,2.90
2022-08-29T12:48:26.395Z,2.75
2022-08-29T12:50:54.699Z,2.90
2022-08-29T12:53:26.153Z,2.50
2022-08-29T12:55:56.198Z,2.38
2022-08-29T12:58:41.436Z,2.88
2022-08-29T13:01:20.848Z,2.53
2022-08-29T13:04:00.849Z,2.28
2022-08-29T13:06:29.395Z,2.33
2022-08-29T13:08:59.099Z,2.40
2022-08-29T13:11:29.034Z,2.45
2022-08-29T13:14:09.413Z,2.28
2022-08-29T13:16:37.797Z,2.80
2022-08-29T13:19:11.426Z,3.13
2022-08-29T13:21:39.743Z,2.60
2022-08-29T13:24:14.093Z,2.40
2022-08-29T13:27:01.084Z,2.22
2022-08-29T13:29:36.873Z,2.70
2022-08-29T13:35:00.520Z,2.60
2022-08-29T13:37:31.304Z,2.42
2022-08-29T13:40:32.077Z,2.20
2022-08-29T13:43:01.565Z,2.60
2022-08-29T13:45:29.283Z,2.08
2022-08-29T13:48:12.196Z,2.40
2022-08-29T13:50:40.726Z,2.03
2022-08-29T13:53:08.459Z,2.63
2022-08-29T13:55:37.681Z,2.40
2022-08-29T13:58:05.428Z,2.35
2022-08-29T14:00:35.430Z,2.63
2022-08-29T14:03:06.473Z,2.40
2022-08-29T14:05:35.700Z,2.15
2022-08-29T14:08:04.635Z,2.40
2022-08-29T14:10:32.331Z,1.95
2022-08-29T14:13:01.331Z,2.53
2022-08-29T14:15:29.024Z,2.22
2022-08-29T14:17:56.847Z,2.30
2022-08-29T14:20:24.551Z,2.20
2022-08-29T14:22:52.140Z,2.30
2022-08-29T14:25:21.117Z,1.77
2022-08-29T14:27:49.047Z,2.10
2022-08-29T14:30:21.483Z,2.38
2022-08-29T14:32:49.191Z,2.10
2022-08-29T14:35:26.824Z,2.30
2022-08-29T14:38:00.390Z,2.22
2022-08-29T14:40:28.938Z,2.13
2022-08-29T14:42:57.022Z,2.03
2022-08-29T14:45:26.103Z,2.25
2022-08-29T14:47:53.709Z,2.45
2022-08-29T14:50:22.106Z,2.10
2022-08-29T14:52:50.240Z,1.83
2022-08-29T14:55:18.357Z,1.77
2022-08-29T14:57:46.112Z,3.53
2022-08-29T15:00:17.157Z,2.78
2022-08-29T15:02:46.198Z,2.13
2022-08-29T15:05:14.181Z,1.80
2022-08-29T15:07:41.912Z,2.33
2022-08-29T15:10:11.420Z,2.20
2022-08-29T15:12:39.587Z,2.40
2022-08-29T15:15:08.473Z,2.10
2022-08-29T15:17:36.177Z,2.83
2022-08-29T15:22:54.837Z,2.13
2022-08-29T15:25:24.117Z,1.95
2022-08-29T15:27:51.925Z,1.95
2022-08-29T15:30:21.468Z,2.30
2022-08-29T15:32:49.403Z,2.20
2022-08-29T15:35:18.984Z,2.35
2022-08-29T15:37:46.633Z,2.63
2022-08-29T15:40:14.987Z,1.95
2022-08-29T15:42:42.737Z,2.30
2022-08-29T15:45:11.863Z,1.98
2022-08-29T15:47:40.605Z,2.00
2022-08-29T15:50:14.994Z,3.03
2022-08-29T15:52:43.993Z,2.38
2022-08-29T15:55:12.595Z,1.77
2022-08-29T15:57:52.166Z,2.10
2022-08-29T16:00:29.856Z,2.17
2022-08-29T16:02:59.962Z,1.80
2022-08-29T16:05:27.615Z,1.88
2022-08-29T16:07:56.628Z,2.20
2022-08-29T16:10:24.355Z,2.28
2022-08-29T16:12:51.972Z,1.80
2022-08-29T16:15:19.712Z,2.20
2022-08-29T16:17:47.400Z,1.83
2022-08-29T16:20:15.014Z,2.17
2022-08-29T16:22:43.686Z,2.50
2022-08-29T16:25:13.956Z,1.70
2022-08-29T16:27:41.770Z,2.15
2022-08-29T16:30:10.952Z,2.08
2022-08-29T16:32:39.644Z,1.75
2022-08-29T16:35:08.350Z,1.90
2022-08-29T16:37:36.037Z,1.92
2022-08-29T16:40:05.371Z,1.95
2022-08-29T16:42:34.861Z,2.13
2022-08-29T16:45:02.659Z,1.90
2022-08-29T16:47:31.073Z,1.90
2022-08-29T16:49:59.212Z,2.08
2022-08-29T16:52:26.829Z,2.00
2022-08-29T16:54:54.498Z,1.95
2022-08-29T16:57:22.590Z,2.15
2022-08-29T16:59:51.560Z,1.85
2022-08-29T17:02:19.199Z,2.10
2022-08-29T17:04:48.803Z,1.80
2022-08-29T17:07:16.538Z,2.33
2022-08-29T17:09:43.108Z,2.22
2022-08-29T17:12:09.909Z,1.90
2022-08-29T17:14:36.515Z,2.10
2022-08-29T17:17:05.694Z,2.05
2022-08-29T17:19:34.032Z,1.90
2022-08-29T17:22:01.850Z,2.20
2022-08-29T17:24:29.447Z,2.10
2022-08-29T17:26:57.457Z,2.13
2022-08-29T17:29:25.132Z,1.95
2022-08-29T17:31:52.721Z,2.28
2022-08-29T17:34:21.730Z,2.10
2022-08-29T17:36:49.586Z,2.10
2022-08-29T17:39:17.219Z,2.05
2022-08-29T17:41:50.323Z,1.80
2022-08-29T17:44:18.532Z,2.00
2022-08-29T17:46:46.217Z,2.25
2022-08-29T17:49:13.816Z,2.28
2022-08-29T17:51:43.543Z,3.22
2022-08-29T17:54:22.377Z,4.20
2022-08-29T17:56:52.483Z,3.03
2022-08-29T17:59:21.355Z,3.30
2022-08-29T18:01:49.095Z,3.30
2022-08-29T18:04:16.869Z,3.17
2022-08-29T18:06:47.037Z,2.72
2022-08-29T18:09:14.936Z,2.33
2022-08-29T18:11:44.743Z,2.80
2022-08-29T18:14:12.933Z,3.17
2022-08-29T18:16:40.728Z,3.30
2022-08-29T18:19:08.764Z,2.92
2022-08-29T18:21:36.892Z,3.30
2022-08-29T18:24:06.490Z,3.42
2022-08-29T18:26:34.826Z,3.03
2022-08-29T18:29:02.489Z,2.60
2022-08-29T18:31:30.174Z,2.67
2022-08-29T18:34:00.475Z,2.83
2022-08-29T18:36:29.130Z,2.53
2022-08-29T18:38:56.830Z,2.75
2022-08-29T18:41:25.959Z,2.50
2022-08-29T18:43:53.605Z,2.45
2022-08-29T18:46:21.790Z,2.60
2022-08-29T18:48:49.439Z,2.83
2022-08-29T18:51:17.156Z,2.85
2022-08-29T18:53:44.796Z,2.78
2022-08-29T18:56:13.333Z,2.95
2022-08-29T18:58:44.193Z,3.20
2022-08-29T19:01:14.009Z,2.90
2022-08-29T19:03:41.940Z,2.70
2022-08-29T19:06:10.161Z,2.60
2022-08-29T19:08:39.365Z,2.70
2022-08-29T19:11:08.615Z,2.72
2022-08-29T19:13:36.347Z,3.10
2022-08-29T19:16:09.482Z,3.22
2022-08-29T19:21:06.359Z,2.78
2022-08-29T19:23:37.007Z,2.47
2022-08-29T19:26:08.304Z,2.70
2022-08-29T19:28:36.412Z,2.78
2022-08-29T19:31:06.340Z,2.88
2022-08-29T19:33:35.102Z,2.55
2022-08-29T19:36:05.270Z,2.65
2022-08-29T19:38:33.012Z,3.05
2022-08-29T19:41:01.043Z,3.00
2022-08-29T19:43:31.898Z,2.92
2022-08-29T19:46:01.211Z,2.80
2022-08-29T19:48:30.275Z,3.08
2022-08-29T19:50:57.914Z,2.90
2022-08-29T19:53:26.213Z,2.80
2022-08-29T19:55:55.245Z,2.95
2022-08-29T19:58:31.453Z,3.00
2022-08-29T20:01:01.425Z,3.20
2022-08-29T20:03:31.150Z,3.10
2022-08-29T20:05:59.470Z,2.97
2022-08-29T20:08:27.406Z,3.08
2022-08-29T20:10:57.015Z,3.97
2022-08-29T20:13:24.672Z,2.85
2022-08-29T20:15:53.523Z,2.35
2022-08-29T20:18:22.487Z,3.50
2022-08-29T20:20:51.592Z,3.08
2022-08-29T20:23:19.296Z,2.90
2022-08-29T20:25:47.227Z,3.38
2022-08-29T20:28:15.628Z,3.10
2022-08-29T20:30:46.206Z,2.78
2022-08-29T20:33:18.111Z,3.08
2022-08-29T20:36:03.767Z,3.20
2022-08-29T20:38:33.244Z,3.40
2022-08-29T20:41:01.277Z,3.38
2022-08-29T20:43:29.491Z,2.85
2022-08-29T20:45:59.905Z,2.88
2022-08-29T20:48:31.350Z,3.15
2022-08-29T20:51:00.180Z,3.03
2022-08-29T20:53:32.350Z,3.05
2022-08-29T20:56:02.148Z,3.17
2022-08-29T20:58:30.383Z,3.00
2022-08-29T21:00:58.192Z,4.03
2022-08-29T21:03:43.945Z,3.00
2022-08-29T21:06:11.700Z,3.17
2022-08-29T21:08:40.921Z,3.17
2022-08-29T21:11:10.195Z,2.90
2022-08-29T21:13:43.602Z,3.03
2022-08-29T21:16:12.394Z,2.92
2022-08-29T21:18:40.418Z,2.90
2022-08-29T21:21:11.218Z,3.20
2022-08-29T21:23:39.037Z,3.00
2022-08-29T21:26:06.753Z,2.55
2022-08-29T21:28:37.921Z,2.60
2022-08-29T21:31:09.562Z,2.78
2022-08-29T21:33:37.707Z,2.40
2022-08-29T21:36:08.245Z,2.78
2022-08-29T21:38:35.889Z,2.90
2022-08-29T21:41:04.355Z,3.20
2022-08-29T21:43:32.364Z,2.75
2022-08-29T21:46:01.436Z,2.70
2022-08-29T21:48:29.023Z,3.08
2022-08-29T21:50:57.304Z,2.80
2022-08-29T21:53:24.899Z,3.03
2022-08-29T21:55:52.507Z,2.80
2022-08-29T21:58:20.461Z,3.05
2022-08-29T22:00:49.246Z,2.92
2022-08-29T22:03:18.514Z,2.70
2022-08-29T22:05:46.348Z,2.78
2022-08-29T22:08:16.452Z,2.80
2022-08-29T22:10:44.652Z,2.65
2022-08-29T22:13:12.260Z,2.63
2022-08-29T22:15:57.983Z,2.65
2022-08-29T22:18:27.291Z,2.58
2022-08-29T22:20:55.794Z,2.88
2022-08-29T22:23:24.336Z,2.97
2022-08-29T22:25:52.550Z,3.33
2022-08-29T22:28:20.364Z,3.13
2022-08-29T22:30:48.619Z,2.75
2022-08-29T22:33:16.980Z,2.70
2022-08-29T22:35:46.431Z,2.63
2022-08-29T22:38:14.216Z,2.70
2022-08-29T22:40:44.182Z,2.65
2022-08-29T22:43:12.184Z,3.80
2022-08-29T22:45:41.445Z,2.70
2022-08-29T22:48:09.100Z,2.83
2022-08-29T22:50:37.011Z,3.03
2022-08-29T22:53:06.195Z,5.93
2022-08-29T22:55:34.099Z,4.97
2022-08-29T22:58:01.693Z,4.50
2022-08-29T23:00:29.594Z,3.10
2022-08-29T23:02:57.260Z,2.70
2022-08-29T23:05:25.136Z,3.20
2022-08-29T23:07:53.031Z,3.35
2022-08-29T23:10:22.249Z,3.20
2022-08-29T23:12:50.577Z,2.80
2022-08-29T23:15:19.383Z,2.65
2022-08-29T23:17:47.562Z,2.83
2022-08-29T23:20:16.816Z,3.30
2022-08-29T23:22:46.952Z,2.95
2022-08-29T23:25:16.701Z,3.22
2022-08-29T23:27:45.670Z,2.70
2022-08-29T23:30:15.237Z,2.60
2022-08-29T23:32:43.018Z,2.83
2022-08-29T23:35:11.156Z,2.58
2022-08-29T23:37:38.780Z,2.65
2022-08-29T23:40:07.497Z,2.67
2022-08-29T23:42:35.125Z,2.17
2022-08-29T23:45:05.313Z,2.20
2022-08-29T23:47:32.923Z,1.95
2022-08-29T23:50:00.529Z,2.08
2022-08-29T23:52:28.158Z,2.35
2022-08-29T23:54:55.756Z,2.28
2022-08-29T23:57:23.357Z,2.40
